Time;durP1;ratioP1;P1;durP2;ratioP2;P2;SDS_P1;SDS_P2;PMS_P1;PMS_P2;Temp;Humidity;BMP_temperature;BMP_pressure;BME280_temperature;BME280_humidity;BME280_pressure;Samples;Min_cycle;Max_cycle;Signal;HPM_P1;HPM_P2
2022/01/02 00:01:00;;;;;;;327.03;31.23;;;8.60;99.90;;;;;;4402990;28;659850;-76
2022/01/02 00:03:51;;;;;;;268.17;30.70;;;8.60;99.90;;;;;;4387881;28;660392;-76
2022/01/02 00:06:39;;;;;;;497.88;34.90;;;8.50;99.90;;;;;;4380999;28;660248;-76
2022/01/02 00:09:33;;;;;;;560.33;35.33;;;8.60;99.90;;;;;;4388899;28;660060;-76
2022/01/02 00:12:24;;;;;;;398.47;30.07;;;8.60;99.90;;;;;;4363808;28;659564;-76
2022/01/02 00:15:12;;;;;;;406.85;33.45;;;8.60;99.90;;;;;;4381275;28;659915;-76
2022/01/02 00:18:06;;;;;;;579.72;34.63;;;8.60;99.90;;;;;;4402723;28;659550;-76
2022/01/02 00:20:56;;;;;;;831.77;41.93;;;8.60;99.90;;;;;;4385034;28;660703;-76
2022/01/02 00:23:52;;;;;;;867.87;39.40;;;8.60;99.90;;;;;;4388290;28;661662;-76
2022/01/02 00:26:42;;;;;;;751.93;35.97;;;8.60;99.90;;;;;;4384487;28;659540;-76
2022/01/02 00:29:31;;;;;;;706.97;35.33;;;8.50;99.90;;;;;;4384897;28;660108;-76
2022/01/02 00:32:19;;;;;;;618.80;34.07;;;8.50;99.90;;;;;;4382360;28;660141;-76
2022/01/02 00:35:07;;;;;;;600.37;36.47;;;8.50;99.90;;;;;;4386506;28;660517;-76
2022/01/02 00:37:57;;;;;;;879.20;40.87;;;8.50;99.90;;;;;;4405852;28;660118;-75
2022/01/02 00:40:46;;;;;;;913.83;41.97;;;8.50;99.90;;;;;;4407493;28;659140;-76
2022/01/02 00:43:38;;;;;;;693.07;34.33;;;8.50;99.90;;;;;;4384147;28;660061;-76
2022/01/02 00:46:26;;;;;;;857.90;39.95;;;8.50;99.90;;;;;;4388523;28;659585;-75
2022/01/02 00:49:13;;;;;;;972.70;40.87;;;8.50;99.90;;;;;;4403812;28;661174;-76
2022/01/02 00:52:04;;;;;;;719.03;36.17;;;8.50;99.90;;;;;;4383836;28;659465;-75
2022/01/02 00:54:53;;;;;;;1033.13;43.20;;;8.50;99.90;;;;;;4387924;28;659520;-76
2022/01/02 00:57:41;;;;;;;857.93;37.57;;;8.50;99.90;;;;;;4390997;28;660903;-74
2022/01/02 01:00:29;;;;;;;782.03;38.93;;;8.50;99.90;;;;;;4407940;28;659657;-76
2022/01/02 01:03:19;;;;;;;917.70;42.33;;;8.50;99.90;;;;;;4385261;28;659284;-76
2022/01/02 01:06:07;;;;;;;852.30;42.13;;;8.50;99.90;;;;;;4384581;28;660311;-76
2022/01/02 01:08:57;;;;;;;1281.60;53.10;;;8.50;99.90;;;;;;4403522;28;659978;-76
2022/01/02 01:11:46;;;;;;;912.43;42.50;;;8.50;99.90;;;;;;4381839;28;661427;-76
2022/01/02 01:14:34;;;;;;;727.03;38.13;;;8.50;99.90;;;;;;4382645;28;660043;-76
2022/01/02 01:17:21;;;;;;;835.83;42.23;;;8.50;99.90;;;;;;4386106;28;659714;-75
2022/01/02 01:20:12;;;;;;;994.47;49.47;;;8.50;99.90;;;;;;4401670;28;659989;-76
2022/01/02 01:22:59;;;;;;;801.13;44.00;;;8.50;99.90;;;;;;4378318;28;659497;-76
2022/01/02 01:25:48;;;;;;;1043.30;49.07;;;8.40;99.90;;;;;;4387288;28;659597;-76
2022/01/02 01:28:38;;;;;;;1317.83;56.93;;;8.50;99.90;;;;;;4386837;28;660768;-75
2022/01/02 01:31:25;;;;;;;1047.73;52.03;;;8.50;99.90;;;;;;4400921;28;660799;-75
2022/01/02 01:34:13;;;;;;;993.40;50.83;;;8.40;99.90;;;;;;4409871;28;661038;-76
2022/01/02 01:37:01;;;;;;;822.67;47.87;;;8.40;99.90;;;;;;4386343;28;659615;-76
2022/01/02 01:39:49;;;;;;;1115.38;54.67;;;8.40;99.90;;;;;;4410223;28;662057;-76
2022/01/02 01:42:38;;;;;;;1217.00;58.97;;;8.40;99.90;;;;;;4389418;28;660915;-76
2022/01/02 01:45:31;;;;;;;1055.70;52.63;;;8.40;99.90;;;;;;4388840;28;661184;-76
2022/01/02 01:48:19;;;;;;;777.43;46.17;;;8.40;99.90;;;;;;4383351;28;660674;-76
2022/01/02 01:51:06;;;;;;;1086.60;55.27;;;8.40;99.90;;;;;;4386254;28;660346;-76
2022/01/02 01:53:54;;;;;;;819.37;47.97;;;8.40;99.90;;;;;;4408181;28;661526;-76
2022/01/02 01:56:41;;;;;;;956.77;52.37;;;8.40;99.90;;;;;;4389128;28;659969;-76
2022/01/02 01:59:29;;;;;;;854.60;49.90;;;8.40;99.90;;;;;;4409215;28;660411;-76
2022/01/02 02:02:18;;;;;;;888.70;49.47;;;8.30;99.90;;;;;;4388172;28;659776;-75
2022/01/02 02:05:06;;;;;;;866.43;49.27;;;8.30;99.90;;;;;;4385968;28;659952;-75
2022/01/02 02:07:54;;;;;;;1042.63;55.73;;;8.30;99.90;;;;;;4409227;28;660190;-76
2022/01/02 02:10:46;;;;;;;798.93;48.83;;;8.30;99.90;;;;;;4389306;28;661087;-76
2022/01/02 02:13:37;;;;;;;858.67;51.13;;;8.40;99.90;;;;;;4386488;28;660645;-76
2022/01/02 02:16:24;;;;;;;861.40;49.83;;;8.30;99.90;;;;;;4387949;28;660115;-76
2022/01/02 02:19:13;;;;;;;966.33;52.17;;;8.30;99.90;;;;;;4390870;28;659862;-76
2022/01/02 02:22:04;;;;;;;864.40;50.23;;;8.30;99.90;;;;;;4386011;28;659291;-76
2022/01/02 02:24:51;;;;;;;862.70;51.57;;;8.30;99.90;;;;;;4390252;28;660077;-75
2022/01/02 02:27:38;;;;;;;846.83;50.97;;;8.30;99.90;;;;;;4408192;28;660752;-76
2022/01/02 02:30:27;;;;;;;743.40;46.43;;;8.30;99.90;;;;;;4390199;28;659705;-76
2022/01/02 02:33:16;;;;;;;774.83;47.00;;;8.30;99.90;;;;;;4406129;28;659280;-76
2022/01/02 02:36:03;;;;;;;746.27;45.07;;;8.30;99.90;;;;;;4382353;28;660181;-76
2022/01/02 02:38:52;;;;;;;875.97;51.37;;;8.20;99.90;;;;;;4390178;28;660251;-76
2022/01/02 02:41:42;;;;;;;693.13;44.07;;;8.20;99.90;;;;;;4413653;28;659834;-76
2022/01/02 02:44:36;;;;;;;858.88;48.58;;;8.30;99.90;;;;;;4385076;28;659874;-76
2022/01/02 02:50:46;;;;;;;725.27;44.27;;;8.30;99.90;;;;;;4320441;28;660893;-74
2022/01/02 02:53:34;;;;;;;1220.43;58.57;;;8.20;99.90;;;;;;4332182;28;660523;-76
2022/01/02 02:56:25;;;;;;;926.07;48.50;;;8.20;99.90;;;;;;4334569;28;660716;-75
2022/01/02 02:59:12;;;;;;;1081.30;54.77;;;8.20;99.90;;;;;;4328597;28;660861;-76
2022/01/02 03:02:01;;;;;;;960.13;49.33;;;8.20;99.90;;;;;;4351519;28;660604;-76
2022/01/02 03:04:48;;;;;;;706.70;42.10;;;8.20;99.90;;;;;;4332081;28;660694;-76
2022/01/02 03:07:36;;;;;;;817.43;45.53;;;8.30;99.90;;;;;;4335078;28;659607;-75
2022/01/02 03:10:24;;;;;;;683.23;41.50;;;8.30;99.90;;;;;;4358023;28;660651;-75
2022/01/02 03:13:12;;;;;;;956.47;47.83;;;8.20;99.90;;;;;;4332446;28;659756;-76
2022/01/02 03:16:00;;;;;;;615.20;39.40;;;8.30;99.90;;;;;;4344960;28;659902;-75
2022/01/02 03:18:48;;;;;;;507.50;34.80;;;8.30;99.90;;;;;;4354014;28;662503;-77
2022/01/02 03:21:36;;;;;;;473.27;37.10;;;8.30;99.90;;;;;;4335432;28;660018;-74
2022/01/02 03:24:23;;;;;;;319.73;30.60;;;8.30;99.90;;;;;;4356968;28;660377;-75
2022/01/02 03:27:11;;;;;;;333.43;33.67;;;8.30;99.90;;;;;;4338956;28;660064;-75
2022/01/02 03:30:02;;;;;;;606.43;38.83;;;8.30;99.90;;;;;;4406925;28;660302;-75
2022/01/02 03:32:49;;;;;;;497.17;35.47;;;8.20;99.90;;;;;;4384899;28;660053;-76
2022/01/02 03:35:37;;;;;;;189.83;29.87;;;8.30;99.90;;;;;;4389008;28;659735;-76
2022/01/02 03:38:24;;;;;;;143.23;29.47;;;8.30;99.90;;;;;;4410398;28;659425;-76
2022/01/02 03:41:15;;;;;;;147.03;30.23;;;8.30;99.90;;;;;;4381428;28;659639;-76
2022/01/02 03:44:02;;;;;;;82.73;27.53;;;8.30;99.90;;;;;;4381030;28;660670;-76
2022/01/02 03:46:51;;;;;;;81.47;27.27;;;8.30;99.90;;;;;;4409920;28;658536;-76
2022/01/02 03:49:39;;;;;;;71.93;26.47;;;8.30;99.90;;;;;;4386772;28;659423;-76
2022/01/02 03:52:26;;;;;;;103.37;28.77;;;8.30;99.90;;;;;;4390319;28;659316;-75
2022/01/02 03:55:14;;;;;;;77.33;27.90;;;8.30;99.90;;;;;;4404186;28;660694;-76
2022/01/02 03:58:01;;;;;;;83.67;27.70;;;8.30;99.90;;;;;;4385412;28;659035;-76
2022/01/02 04:00:49;;;;;;;83.07;27.53;;;8.30;99.90;;;;;;4409097;28;659256;-76
2022/01/02 04:03:38;;;;;;;81.17;27.60;;;8.30;99.90;;;;;;4389580;28;658517;-75
2022/01/02 04:06:26;;;;;;;79.63;26.80;;;8.30;99.90;;;;;;4403251;28;658713;-75
2022/01/02 04:09:13;;;;;;;59.40;25.60;;;8.40;99.90;;;;;;4405829;28;659483;-76
2022/01/02 04:12:01;;;;;;;67.90;26.57;;;8.40;99.90;;;;;;4385003;28;658708;-75
2022/01/02 04:14:48;;;;;;;65.67;26.30;;;8.40;99.90;;;;;;4408181;28;659019;-75
2022/01/02 04:17:36;;;;;;;61.07;23.70;;;8.40;99.90;;;;;;4389481;28;659554;-74
2022/01/02 04:20:24;;;;;;;53.00;21.93;;;8.40;99.90;;;;;;4409161;28;659149;-76
2022/01/02 04:23:12;;;;;;;66.60;25.40;;;8.40;99.90;;;;;;4386623;28;658470;-76
2022/01/02 04:25:59;;;;;;;54.37;22.70;;;8.40;99.90;;;;;;4409252;28;660392;-76
2022/01/02 04:28:48;;;;;;;65.80;23.97;;;8.40;99.90;;;;;;4386595;28;659658;-76
2022/01/02 04:31:36;;;;;;;64.28;23.23;;;8.40;99.90;;;;;;4393865;28;658668;-75
2022/01/02 04:34:23;;;;;;;59.97;24.57;;;8.40;99.90;;;;;;4408542;28;659884;-76
2022/01/02 04:37:12;;;;;;;61.77;23.87;;;8.40;99.90;;;;;;4386286;28;659098;-75
2022/01/02 04:39:59;;;;;;;64.97;25.70;;;8.40;99.90;;;;;;4408049;28;658458;-76
2022/01/02 04:42:47;;;;;;;63.13;24.77;;;8.40;99.90;;;;;;4390324;28;659710;-76
2022/01/02 04:45:34;;;;;;;75.97;24.57;;;8.40;99.90;;;;;;4408730;28;658796;-76
2022/01/02 04:48:22;;;;;;;197.27;26.47;;;8.40;99.90;;;;;;4387900;28;660018;-76
2022/01/02 04:51:09;;;;;;;147.60;24.57;;;8.30;99.90;;;;;;4402780;28;660304;-76
2022/01/02 04:53:58;;;;;;;184.50;24.07;;;8.30;99.90;;;;;;4387418;28;660449;-75
2022/01/02 04:56:46;;;;;;;244.57;22.73;;;8.20;99.90;;;;;;4387757;28;660631;-75
2022/01/02 04:59:33;;;;;;;120.00;22.17;;;8.20;99.90;;;;;;4409797;28;659769;-76
2022/01/02 05:02:21;;;;;;;58.47;21.13;;;8.20;99.90;;;;;;4384691;28;659312;-75
2022/01/02 05:05:09;;;;;;;331.37;25.23;;;8.30;99.90;;;;;;4406019;28;659761;-76
2022/01/02 05:07:56;;;;;;;51.03;20.93;;;8.20;99.90;;;;;;4391160;28;660122;-75
2022/01/02 05:10:45;;;;;;;52.47;21.00;;;8.20;99.90;;;;;;4411391;28;659124;-76
2022/01/02 05:13:33;;;;;;;91.23;21.73;;;8.20;99.90;;;;;;4391785;28;659660;-76
2022/01/02 05:16:21;;;;;;;80.03;22.60;;;8.20;99.90;;;;;;4394036;28;658896;-75
2022/01/02 05:19:13;;;;;;;64.20;21.90;;;8.20;99.90;;;;;;4411885;28;658984;-75
2022/01/02 05:22:05;;;;;;;61.37;22.10;;;8.20;99.90;;;;;;4372317;28;659055;-75
2022/01/02 05:24:58;;;;;;;123.90;24.67;;;8.20;99.90;;;;;;4392220;28;659249;-76
2022/01/02 05:27:49;;;;;;;88.20;24.43;;;8.20;99.90;;;;;;4364539;28;659923;-75
2022/01/02 05:30:38;;;;;;;109.20;24.00;;;8.10;99.90;;;;;;4388918;28;658382;-75
2022/01/02 05:33:28;;;;;;;635.00;35.50;;;8.20;99.90;;;;;;4390917;28;659759;-75
2022/01/02 05:36:17;;;;;;;628.17;32.93;;;8.20;99.90;;;;;;4396177;28;659852;-75
2022/01/02 05:39:08;;;;;;;401.27;32.33;;;8.10;99.90;;;;;;4405415;28;659407;-75
2022/01/02 05:42:00;;;;;;;390.02;33.47;;;8.20;99.90;;;;;;4379934;28;660288;-76
2022/01/02 05:44:51;;;;;;;539.63;36.93;;;8.20;99.90;;;;;;4391789;28;659389;-75
2022/01/02 05:47:40;;;;;;;302.40;32.23;;;8.20;99.90;;;;;;4391680;28;660601;-75
2022/01/02 05:50:28;;;;;;;477.50;39.50;;;8.10;99.90;;;;;;4391317;28;660232;-75
2022/01/02 05:53:15;;;;;;;751.43;39.03;;;8.10;99.90;;;;;;4393579;28;659649;-75
2022/01/02 05:56:03;;;;;;;569.37;39.90;;;8.10;99.90;;;;;;4405004;28;660977;-75
2022/01/02 05:58:51;;;;;;;659.47;36.23;;;8.00;99.90;;;;;;4390076;28;659750;-75
2022/01/02 06:01:40;;;;;;;549.37;34.90;;;8.00;99.90;;;;;;4413827;28;660671;-74
2022/01/02 06:04:27;;;;;;;691.23;37.03;;;8.00;99.90;;;;;;4390890;28;660901;-75
2022/01/02 06:07:16;;;;;;;460.23;30.70;;;7.90;99.90;;;;;;4403574;28;660174;-74
2022/01/02 06:10:04;;;;;;;440.40;29.77;;;7.80;99.90;;;;;;4405013;28;660991;-76
2022/01/02 06:12:51;;;;;;;670.70;32.67;;;7.80;99.90;;;;;;4390732;28;659277;-75
2022/01/02 06:15:39;;;;;;;583.03;29.17;;;7.80;99.90;;;;;;4409329;28;660043;-76
2022/01/02 06:18:32;;;;;;;330.58;24.77;;;7.80;99.90;;;;;;4390203;28;660240;-75
2022/01/02 06:21:20;;;;;;;424.07;24.00;;;7.70;99.90;;;;;;4383913;28;660070;-75
2022/01/02 06:24:07;;;;;;;480.17;27.10;;;7.70;99.90;;;;;;4382053;28;661138;-75
2022/01/02 06:26:55;;;;;;;469.33;25.20;;;7.60;99.90;;;;;;4408425;28;660141;-75
2022/01/02 06:29:42;;;;;;;372.50;26.67;;;7.60;99.90;;;;;;4385664;28;661300;-75
2022/01/02 06:32:30;;;;;;;465.80;27.80;;;7.50;99.90;;;;;;4409394;28;659221;-76
2022/01/02 06:35:19;;;;;;;736.37;35.20;;;7.50;99.90;;;;;;4383089;28;660835;-76
2022/01/02 06:38:13;;;;;;;375.43;26.27;;;7.50;99.90;;;;;;4381210;28;661582;-76
2022/01/02 06:41:01;;;;;;;679.83;30.77;;;7.40;99.90;;;;;;4376451;28;660035;-75
2022/01/02 06:43:52;;;;;;;303.23;24.50;;;7.50;99.90;;;;;;4400155;28;660501;-76
2022/01/02 06:46:40;;;;;;;554.93;26.67;;;7.40;99.90;;;;;;4388027;28;659845;-76
2022/01/02 06:49:28;;;;;;;649.43;28.47;;;7.30;99.90;;;;;;4386304;28;660471;-76
2022/01/02 06:52:19;;;;;;;539.63;27.03;;;7.40;99.90;;;;;;4373270;28;659724;-74
2022/01/02 06:55:08;;;;;;;404.33;25.27;;;7.30;99.90;;;;;;4373278;28;659686;-75
2022/01/02 06:57:56;;;;;;;211.97;22.03;;;7.30;99.90;;;;;;4372541;28;660076;-74
2022/01/02 07:00:43;;;;;;;177.87;24.10;;;7.40;99.90;;;;;;4394539;28;660489;-76
2022/01/02 07:03:31;;;;;;;115.07;22.63;;;7.30;99.90;;;;;;4372841;28;659920;-75
2022/01/02 07:06:18;;;;;;;109.33;24.57;;;7.30;99.90;;;;;;4396011;28;660020;-75
2022/01/02 07:09:07;;;;;;;607.17;29.30;;;7.30;99.90;;;;;;4384922;28;660225;-76
2022/01/02 07:11:56;;;;;;;123.37;23.37;;;7.20;99.90;;;;;;4408221;28;659899;-74
2022/01/02 07:14:43;;;;;;;116.33;23.53;;;7.20;99.90;;;;;;4428531;28;661979;-75
2022/01/02 07:17:31;;;;;;;64.57;23.37;;;7.20;99.90;;;;;;4388305;28;659759;-75
2022/01/02 07:20:18;;;;;;;72.87;22.90;;;7.20;99.90;;;;;;4433305;28;658938;-76
2022/01/02 07:23:06;;;;;;;133.27;22.50;;;7.20;99.90;;;;;;4368799;28;658906;-75
2022/01/02 07:25:55;;;;;;;87.83;21.47;;;7.20;99.90;;;;;;4403897;28;660860;-75
2022/01/02 07:28:43;;;;;;;66.90;21.53;;;7.20;99.90;;;;;;4377467;28;659461;-75
2022/01/02 07:31:31;;;;;;;44.87;20.87;;;7.20;99.90;;;;;;4394192;28;659335;-75
2022/01/02 07:34:18;;;;;;;49.93;22.77;;;7.20;99.90;;;;;;4385929;28;658777;-76
2022/01/02 07:37:06;;;;;;;68.50;27.23;;;7.20;99.90;;;;;;4370679;28;658860;-75
2022/01/02 07:39:53;;;;;;;211.67;41.60;;;7.20;99.90;;;;;;4401101;28;658401;-75
2022/01/02 07:42:42;;;;;;;759.60;84.63;;;7.20;99.90;;;;;;4385927;28;660473;-75
2022/01/02 07:45:30;;;;;;;496.17;48.60;;;7.20;99.90;;;;;;4394142;28;659880;-76
2022/01/02 07:48:17;;;;;;;88.87;30.17;;;7.20;99.90;;;;;;4371404;28;661358;-75
2022/01/02 07:51:13;;;;;;;343.63;44.30;;;7.20;99.90;;;;;;4393976;28;659136;-75
2022/01/02 07:54:01;;;;;;;69.50;26.67;;;7.20;99.90;;;;;;4355549;28;659618;-74
2022/01/02 07:56:48;;;;;;;51.90;23.70;;;7.20;99.90;;;;;;4401165;28;659438;-76
2022/01/02 07:59:37;;;;;;;39.03;19.73;;;7.20;99.90;;;;;;4388837;28;659300;-76
2022/01/02 08:02:26;;;;;;;55.00;21.67;;;7.30;99.90;;;;;;4389689;28;659618;-76
2022/01/02 08:05:21;;;;;;;40.90;20.07;;;7.30;99.90;;;;;;4410662;28;658665;-76
2022/01/02 08:08:08;;;;;;;42.03;19.97;;;7.30;99.90;;;;;;4382800;28;659385;-76
2022/01/02 08:10:56;;;;;;;157.47;24.63;;;7.40;99.90;;;;;;4371463;28;658597;-76
2022/01/02 08:13:44;;;;;;;73.13;23.43;;;7.40;99.90;;;;;;4391222;28;659918;-76
2022/01/02 08:16:33;;;;;;;43.33;20.93;;;7.40;99.90;;;;;;4386380;28;658998;-76
2022/01/02 08:19:21;;;;;;;43.53;21.93;;;7.40;99.90;;;;;;4371216;28;658649;-76
2022/01/02 08:22:09;;;;;;;37.90;18.53;;;7.50;99.90;;;;;;4426796;28;658345;-76
2022/01/02 08:25:11;;;;;;;34.43;17.70;;;7.60;99.90;;;;;;4336877;28;658852;-76
2022/01/02 08:28:02;;;;;;;28.83;13.83;;;7.60;99.90;;;;;;4328811;28;658678;-77
2022/01/02 08:30:56;;;;;;;23.70;12.13;;;7.70;99.90;;;;;;4350476;28;658946;-77
2022/01/02 08:33:45;;;;;;;23.93;11.73;;;7.80;99.90;;;;;;4332295;28;658862;-76
2022/01/02 08:36:33;;;;;;;22.00;12.00;;;7.90;99.90;;;;;;4379427;28;659543;-77
2022/01/02 08:39:21;;;;;;;19.30;10.80;;;8.00;99.90;;;;;;4389848;28;658644;-76
2022/01/02 08:42:09;;;;;;;18.20;10.17;;;8.10;99.90;;;;;;4404642;28;659668;-76
2022/01/02 08:44:56;;;;;;;20.07;10.83;;;8.20;99.90;;;;;;4390509;28;658991;-77
2022/01/02 08:47:44;;;;;;;20.20;10.97;;;8.30;99.90;;;;;;4398539;28;658644;-78
2022/01/02 08:50:33;;;;;;;18.93;11.30;;;8.40;99.90;;;;;;4369839;28;658660;-72
2022/01/02 08:53:21;;;;;;;21.27;11.60;;;8.50;99.90;;;;;;4376241;28;658629;-73
2022/01/02 08:56:08;;;;;;;23.57;11.70;;;8.70;99.90;;;;;;4401717;28;658971;-71
2022/01/02 08:58:56;;;;;;;22.87;11.60;;;8.90;99.90;;;;;;4375973;28;659220;-72
2022/01/02 09:01:44;;;;;;;28.10;12.83;;;9.20;99.90;;;;;;4394404;28;659953;-72
2022/01/02 09:04:32;;;;;;;21.45;11.48;;;9.70;99.90;;;;;;4374379;28;658954;-71
2022/01/02 09:07:21;;;;;;;20.00;11.07;;;10.10;99.90;;;;;;4393824;28;658477;-71
2022/01/02 09:10:09;;;;;;;21.27;11.77;;;10.40;99.90;;;;;;4367393;28;661035;-71
2022/01/02 09:12:57;;;;;;;22.08;10.75;;;10.80;99.90;;;;;;4371612;28;659690;-72
2022/01/02 09:15:44;;;;;;;17.00;9.60;;;11.20;99.90;;;;;;4394558;28;660223;-73
2022/01/02 09:18:33;;;;;;;15.57;8.67;;;11.30;99.90;;;;;;4376844;28;658972;-73
2022/01/02 09:21:21;;;;;;;14.50;8.50;;;11.60;99.90;;;;;;4378896;28;658441;-72
2022/01/02 09:24:10;;;;;;;18.13;8.43;;;11.70;99.90;;;;;;4397753;28;658860;-71
2022/01/02 09:26:57;;;;;;;14.93;8.70;;;11.70;99.90;;;;;;4372497;28;660472;-73
2022/01/02 09:29:45;;;;;;;12.97;8.10;;;11.80;99.90;;;;;;4396818;28;658623;-73
2022/01/02 09:32:34;;;;;;;15.20;8.00;;;11.70;99.90;;;;;;4377055;28;659227;-72
2022/01/02 09:35:22;;;;;;;14.30;8.60;;;11.70;99.90;;;;;;4374902;28;658359;-72
2022/01/02 09:38:10;;;;;;;17.53;9.90;;;11.70;99.90;;;;;;4399886;28;659460;-72
2022/01/02 09:40:59;;;;;;;15.07;6.80;;;11.60;99.90;;;;;;4388289;28;661003;-71
2022/01/02 09:43:47;;;;;;;15.93;7.53;;;11.50;99.90;;;;;;4390990;28;658850;-72
2022/01/02 09:46:35;;;;;;;21.00;12.17;;;11.40;99.90;;;;;;4409596;28;658536;-74
2022/01/02 09:49:22;;;;;;;31.93;18.53;;;11.50;99.90;;;;;;4391344;28;659787;-72
2022/01/02 09:52:11;;;;;;;16.00;8.67;;;11.50;99.90;;;;;;4405427;28;660339;-74
2022/01/02 09:54:58;;;;;;;17.17;7.20;;;11.60;99.90;;;;;;4414432;28;658718;-74
2022/01/02 09:57:48;;;;;;;14.00;7.10;;;11.60;99.90;;;;;;4390207;28;658502;-73
2022/01/02 10:00:36;;;;;;;15.47;7.70;;;11.60;99.90;;;;;;4391871;28;658893;-73
2022/01/02 10:03:23;;;;;;;13.30;6.93;;;12.00;99.90;;;;;;4396092;28;659332;-77
2022/01/02 10:06:11;;;;;;;15.27;7.17;;;12.50;99.90;;;;;;4391474;28;658738;-78
2022/01/02 10:09:00;;;;;;;15.07;7.50;;;13.10;99.90;;;;;;4411037;28;659993;-77
2022/01/02 10:11:48;;;;;;;14.67;7.50;;;13.80;99.90;;;;;;4391289;28;659151;-76
2022/01/02 10:14:38;;;;;;;15.70;8.03;;;13.90;99.90;;;;;;4393838;28;658587;-77
2022/01/02 10:17:26;;;;;;;15.17;7.43;;;14.40;99.90;;;;;;4388742;28;659443;-77
2022/01/02 10:20:16;;;;;;;14.87;6.63;;;14.80;99.90;;;;;;4410425;28;660321;-77
2022/01/02 10:23:15;;;;;;;13.60;6.73;;;15.50;99.90;;;;;;4387277;28;659699;-77
2022/01/02 10:26:04;;;;;;;14.33;6.87;;;15.80;99.90;;;;;;4391459;28;658703;-78
2022/01/02 10:28:51;;;;;;;11.33;6.20;;;15.30;99.90;;;;;;4391002;28;659367;-78
2022/01/02 10:31:41;;;;;;;12.83;5.90;;;14.80;99.90;;;;;;4408255;28;659401;-78
2022/01/02 10:34:32;;;;;;;10.80;5.60;;;14.10;99.90;;;;;;4383953;28;658908;-76
2022/01/02 10:37:25;;;;;;;10.60;5.90;;;13.40;99.90;;;;;;4392344;28;658742;-77
2022/01/02 10:40:33;;;;;;;9.53;5.30;;;12.60;99.90;;;;;;4360966;28;659557;-76
2022/01/02 10:43:26;;;;;;;11.70;6.07;;;12.20;99.90;;;;;;4368835;28;657939;-76
2022/01/02 10:46:13;;;;;;;13.27;6.50;;;12.10;99.90;;;;;;4396561;28;659787;-77
2022/01/02 10:49:02;;;;;;;10.87;5.97;;;11.70;99.90;;;;;;4386943;28;659608;-77
2022/01/02 10:51:51;;;;;;;12.07;6.03;;;11.60;99.90;;;;;;4407930;28;658848;-76
2022/01/02 10:54:38;;;;;;;13.13;6.93;;;11.30;99.90;;;;;;4409709;28;658680;-76
2022/01/02 10:57:26;;;;;;;12.83;7.20;;;11.20;99.90;;;;;;4391288;28;660101;-77
2022/01/02 11:00:15;;;;;;;14.82;7.18;;;11.10;99.90;;;;;;4402124;28;659340;-77
2022/01/02 11:03:02;;;;;;;14.90;8.03;;;11.00;99.90;;;;;;4390806;28;658942;-78
2022/01/02 11:05:52;;;;;;;14.03;7.73;;;10.80;99.90;;;;;;4408889;28;659192;-76
2022/01/02 11:08:42;;;;;;;16.13;8.83;;;10.80;99.90;;;;;;4410816;28;658614;-77
2022/01/02 11:11:30;;;;;;;19.03;7.97;;;10.60;99.90;;;;;;4388487;28;658766;-76
2022/01/02 11:14:17;;;;;;;21.33;10.47;;;10.50;99.90;;;;;;4387747;28;659785;-77
2022/01/02 11:17:06;;;;;;;21.83;10.03;;;10.40;99.90;;;;;;4406726;28;660028;-76
2022/01/02 11:19:53;;;;;;;18.53;9.20;;;10.30;99.90;;;;;;4402795;28;661726;-78
2022/01/02 11:22:43;;;;;;;21.33;10.73;;;10.20;99.90;;;;;;4386745;28;659249;-77
2022/01/02 11:25:34;;;;;;;18.37;9.10;;;10.10;99.90;;;;;;4386106;28;659425;-77
2022/01/02 11:28:31;;;;;;;20.10;10.70;;;10.10;99.90;;;;;;4386248;28;658520;-76
2022/01/02 11:31:29;;;;;;;21.53;10.93;;;10.20;99.90;;;;;;4388208;28;659518;-79
2022/01/02 11:34:23;;;;;;;20.60;11.30;;;10.20;99.90;;;;;;4389550;28;660203;-77
2022/01/02 11:37:20;;;;;;;20.23;10.03;;;10.20;99.90;;;;;;4388519;28;660070;-78
2022/01/02 11:40:10;;;;;;;19.17;9.93;;;10.30;99.90;;;;;;4385161;28;659773;-77
2022/01/02 11:42:57;;;;;;;17.43;8.60;;;10.30;99.90;;;;;;4384344;28;659531;-75
2022/01/02 11:45:45;;;;;;;16.92;9.10;;;10.30;99.90;;;;;;4410423;28;658639;-77
2022/01/02 11:48:33;;;;;;;18.90;9.33;;;10.30;99.90;;;;;;4389579;28;659256;-79
2022/01/02 11:51:39;;;;;;;17.33;7.90;;;10.30;99.90;;;;;;4386646;28;658681;-77
2022/01/02 11:54:48;;;;;;;19.03;9.00;;;10.30;99.90;;;;;;4381157;28;658943;-76
2022/01/02 11:57:46;;;;;;;17.70;7.90;;;10.30;99.90;;;;;;4390119;28;658622;-76
2022/01/02 12:00:51;;;;;;;17.93;7.63;;;10.30;99.90;;;;;;4382197;28;659538;-75
2022/01/02 12:03:49;;;;;;;17.77;7.97;;;10.40;99.90;;;;;;4385298;28;658929;-76
2022/01/02 12:06:37;;;;;;;12.73;6.80;;;10.60;99.90;;;;;;4380755;28;658498;-76
2022/01/02 12:09:36;;;;;;;13.97;6.60;;;10.70;99.90;;;;;;4403633;28;658757;-75
2022/01/02 12:12:23;;;;;;;15.73;7.13;;;10.70;99.90;;;;;;4390924;28;659793;-76
2022/01/02 12:15:12;;;;;;;14.57;6.73;;;10.80;99.90;;;;;;4390392;28;658515;-76
2022/01/02 12:18:06;;;;;;;15.03;7.57;;;11.00;99.90;;;;;;4412342;28;658352;-76
2022/01/02 12:21:10;;;;;;;17.17;7.67;;;11.10;99.90;;;;;;4390026;28;658836;-77
2022/01/02 12:23:57;;;;;;;16.33;6.93;;;11.10;99.90;;;;;;4370396;28;658827;-77
2022/01/02 12:26:46;;;;;;;16.03;7.50;;;11.20;99.90;;;;;;4393358;28;658840;-76
2022/01/02 12:29:33;;;;;;;18.30;7.57;;;11.50;99.90;;;;;;4371153;28;659475;-75
2022/01/02 12:32:24;;;;;;;15.50;8.00;;;11.90;99.90;;;;;;4374420;28;658727;-77
2022/01/02 12:35:11;;;;;;;17.67;7.73;;;12.20;99.90;;;;;;4374237;28;658937;-78
2022/01/02 12:38:03;;;;;;;13.80;7.50;;;12.40;99.90;;;;;;4390801;28;659351;-77
2022/01/02 12:40:53;;;;;;;20.00;8.13;;;12.80;99.90;;;;;;4364029;28;658962;-77
2022/01/02 12:43:41;;;;;;;17.90;7.23;;;13.30;99.90;;;;;;4368756;28;659316;-77
2022/01/02 12:46:33;;;;;;;16.43;7.43;;;13.40;99.90;;;;;;4381043;28;660319;-77
2022/01/02 12:49:23;;;;;;;14.03;6.70;;;13.00;99.90;;;;;;4358254;28;658388;-77
2022/01/02 12:52:11;;;;;;;17.20;7.53;;;12.50;99.90;;;;;;4357914;28;658605;-76
2022/01/02 12:54:59;;;;;;;15.13;7.53;;;12.10;99.90;;;;;;4375477;28;658517;-78
2022/01/02 12:57:47;;;;;;;21.37;8.40;;;11.90;99.90;;;;;;4356439;28;658561;-76
2022/01/02 13:00:34;;;;;;;21.03;8.50;;;11.70;99.90;;;;;;4396042;28;658600;-76
2022/01/02 13:03:22;;;;;;;20.00;8.37;;;11.40;99.90;;;;;;4374278;28;659507;-77
2022/01/02 13:06:11;;;;;;;17.20;9.03;;;11.20;99.90;;;;;;4397098;28;659594;-76
2022/01/02 13:08:59;;;;;;;22.57;9.37;;;10.90;99.90;;;;;;4374161;28;659756;-77
2022/01/02 13:11:46;;;;;;;21.20;9.20;;;10.80;99.90;;;;;;4371888;28;659195;-76
2022/01/02 13:14:39;;;;;;;22.27;9.90;;;10.60;99.90;;;;;;4392894;28;659446;-77
2022/01/02 13:17:28;;;;;;;26.97;9.13;;;10.50;99.90;;;;;;4372907;28;659025;-77
2022/01/02 13:20:17;;;;;;;22.17;9.43;;;10.40;99.90;;;;;;4371689;28;658978;-79
2022/01/02 13:23:07;;;;;;;23.23;10.27;;;10.30;99.90;;;;;;4392465;28;659640;-78
2022/01/02 13:25:54;;;;;;;20.03;9.77;;;10.30;99.90;;;;;;4363521;28;660775;-76
2022/01/02 13:28:42;;;;;;;23.10;9.70;;;10.30;99.90;;;;;;4364785;28;658807;-77
2022/01/02 13:31:31;;;;;;;27.17;10.80;;;10.30;99.90;;;;;;4392473;28;658487;-76
2022/01/02 13:34:25;;;;;;;20.33;10.33;;;10.20;99.90;;;;;;4383760;28;659919;-76
2022/01/02 13:37:13;;;;;;;21.20;10.40;;;10.20;99.90;;;;;;4370343;28;660179;-77
2022/01/02 13:40:02;;;;;;;21.93;10.33;;;10.10;99.90;;;;;;4377798;28;660450;-77
2022/01/02 13:42:51;;;;;;;25.08;9.80;;;10.10;99.90;;;;;;4415858;28;660078;-77
2022/01/02 13:45:39;;;;;;;35.83;12.13;;;10.10;99.90;;;;;;4390113;28;659352;-77
2022/01/02 13:48:29;;;;;;;20.80;9.97;;;10.10;99.90;;;;;;4392732;28;660839;-76
2022/01/02 13:51:17;;;;;;;20.90;9.67;;;10.10;99.90;;;;;;4393068;28;658538;-75
2022/01/02 13:54:15;;;;;;;28.50;11.40;;;10.10;99.90;;;;;;4416124;28;659812;-76
2022/01/02 13:57:06;;;;;;;20.93;10.10;;;10.00;99.90;;;;;;4386660;28;659830;-75
2022/01/02 13:59:54;;;;;;;20.20;10.07;;;10.00;99.90;;;;;;4385500;28;659784;-77
2022/01/02 14:02:41;;;;;;;23.37;11.07;;;10.00;99.90;;;;;;4392131;28;660411;-77
2022/01/02 14:05:46;;;;;;;24.53;10.20;;;10.00;99.90;;;;;;4410760;28;659837;-77
2022/01/02 14:08:39;;;;;;;27.73;11.23;;;10.00;99.90;;;;;;4370865;28;659922;-78
2022/01/02 14:11:30;;;;;;;23.53;11.43;;;9.90;99.90;;;;;;4375120;28;660115;-77
2022/01/02 14:14:23;;;;;;;25.27;11.57;;;9.90;99.90;;;;;;4371955;28;659876;-75